Alamo, Nevada Weather observations

Data are for observation ending at time listed.
 Day   Time    Ave.   Ave.  Ave.  Vector   Max.   Stn.    Total    Solar   Ave.  
  of    of     Air    Rel.  Wind   Wind    Wind   Baro.  Precip.   Rad.    Soil  
Year   Day     Temp.  Hum.  Speed  Dir.    Gust   Pres.                    Temp. 
2016   (PST)    F      %     mph   deg.    mph     mb.     in.     W/m2     F   
------------------------------------------------------------------------------
 341    3:00   31.6    51    0.4   292      1.6   892.6    0.00       0    39.3
 341    3:10   31.8    49    0.5    10      1.5   892.7    0.00       0    39.3
 341    3:20   32.1    48    0.8    27      2.3   892.7    0.00       0    39.3
 341    3:30   32.3    45    1.3   351      2.5   892.6    0.00       0    39.3
 341    3:40   32.6    44    1.1   299      2.9   892.6    0.00       0    39.3
 341    3:50   32.6    45    1.0   277      2.8   892.5    0.00       0    39.3
 341    4:00   32.5    44    0.7   292      2.8   892.5    0.00       0    39.3
 341    4:10   32.5    45    0.6   354      2.5   892.4    0.00       0    39.3
 341    4:20   32.5    44    0.9    30      2.0   892.4    0.00       0    39.2
 341    4:30   32.5    45    0.6    65      3.5   892.3    0.00       0    39.2
 341    4:40   32.2    46    0.8    59      3.7   892.1    0.00       0    39.2
 341    4:50   31.8    46    0.6   109      2.3   892.0    0.00       0    39.1
 341    5:00   31.4    48    0.8   332      2.8   892.1    0.00       0    39.1
 341    5:10   31.2    50    0.7    48      1.7   892.1    0.00       0    39.0
 341    5:20   30.7    52    0.7   313      1.8   892.0    0.00       0    38.9
 341    5:30   30.2    54    0.9   313      1.6   892.0    0.00       0    38.8
 341    5:40   29.9    56    0.3   353      1.5   892.0    0.00       0    38.7
 341    5:50   29.7    56    0.0     0      0.0   892.0    0.00       0    38.6
 341    6:00   29.5    55    0.0     0      0.0   892.0    0.00       0    38.5
 341    6:10   29.2    56    0.0     0      0.0   892.0    0.00       0    38.4
 341    6:20   28.8    58    0.0     0      0.0   892.0    0.00       0    38.3
 341    6:30   28.2    59    0.1   302      0.9   892.0    0.00       0    38.2
 341    6:40   27.6    60    0.3   297      1.8   892.0    0.00       0    38.0
 341    6:50   26.7    59    0.5   328      1.8   892.1    0.00       0    37.9
 341    7:00   26.2    62    1.2    49      3.4   892.1    0.00       2    37.7
 341    7:10   26.1    65    1.6   358      3.5   892.4    0.00       7    37.5
 341    7:20   25.6    64    1.6   283      3.1   892.6    0.00      13    37.3
 341    7:30   25.7    61    0.4   268      2.1   892.9    0.00      14    37.1
 341    7:40   26.8    56    0.2   284      0.9   893.1    0.00      14    37.0
 341    7:50   27.9    55    1.4    42      2.7   893.1    0.00      15    36.9
 341    8:00   29.1    50    1.4     3      2.9   893.3    0.00      22    36.8
 341    8:10   30.2    47    1.6   356      3.8   893.3    0.00      25    36.7
 341    8:20   31.6    44    1.6   344      4.7   893.2    0.00      27    36.6
 341    8:30   32.8    41    1.1   328      2.7   893.2    0.00      27    36.6
 341    8:40   34.1    40    0.5   323      2.1   893.1    0.00      27    36.6
 341    8:50   35.2    38    0.7   300      2.9   893.2    0.00      27    36.7
 341    9:00   36.3    36    1.8     7      3.7   893.4    0.00      27    36.8
 341    9:10   37.6    34    2.0   355      6.1   893.4    0.00      27    36.9
 341    9:20   38.3    33    1.8     1      3.9   893.4    0.00      28    37.0
 341    9:30   39.0    33    1.6   359      4.5   893.4    0.00      33    37.1
 341    9:40   40.1    32    0.6   279      1.6   893.3    0.00      27    37.2
 341    9:50   40.8    31    1.1   239      3.1   893.3    0.00      27    37.4
 341   10:00   42.3    30    2.9   201      5.9   893.0    0.00      27    37.5
 341   10:10   43.5    29    2.8   207      6.0   892.8    0.00      27    37.7
 341   10:20   45.0    28    3.1   196      6.4   892.5    0.00      27    38.0
 341   10:30   46.9    28    2.8   195      6.7   892.4    0.00      27    38.5
 341   10:40   48.8    27    2.4   182      7.2   892.2    0.00      27    39.2
 341   10:50   50.2    25    2.3   179      7.3   891.9    0.00      38    40.3
 341   11:00   51.1    24    2.4   180      6.3   891.7    0.00      46    41.5
 341   11:10   52.2    24    1.8   167      5.9   891.3    0.00      74    42.8
 341   11:20   52.9    23    1.7   164      7.3   891.1    0.00     190    43.9
 341   11:30   54.3    22    1.9   168      8.3   891.0    0.00     193    44.8
 341   11:40   55.5    21    2.2   177     10.0   890.6    0.00     104    45.4
 341   11:50   55.9    21    1.7   157      6.7   890.0    0.00     571    45.9
 341   12:00   56.0    20    1.9   160      7.4   889.7    0.00     575    46.4
 341   12:10   56.6    20    1.7   176      6.9   889.5    0.00     571    47.2
 341   12:20   56.8    20    2.0   167      7.1   889.2    0.00     566    48.1
 341   12:30   57.1    19    1.9   170      7.6   889.0    0.00     562    49.2
 341   12:40   57.4    19    1.5   153      5.8   888.9    0.00     555    50.1
 341   12:50   58.2    19    1.6   167      5.0   888.7    0.00     545    51.0
 341   13:00   58.5    18    1.6   160      6.6   888.5    0.00     533    51.8
 341   13:10   58.7    18    1.8   170      6.4   888.3    0.00     520    52.6
 341   13:20   58.5    18    1.8   158      4.2   888.2    0.00     506    53.3
 341   13:30   59.3    18    2.2   172      7.4   888.1    0.00     488    54.0
 341   13:40   59.6    18    3.0   183      8.3   888.1    0.00     468    54.5
 341   13:50   59.8    17    2.4   171      7.7   888.1    0.00     451    55.0
 341   14:00   59.4    17    3.1   180      9.4   888.0    0.00     427    55.5
 341   14:10   59.0    18    5.2   185     10.2   888.0    0.00     402    55.8
 341   14:20   58.7    18    3.6   186      8.3   888.0    0.00     378    56.1
 341   14:30   58.1    19    3.9   184     10.5   887.9    0.00     355    56.3
 341   14:40   58.7    18    2.1   183      4.9   887.9    0.00     332    56.4
 341   14:50   58.7    18    2.0   172      8.0   887.9    0.00     309    56.5
 341   15:00   57.7    19    2.1   181      6.9   888.0    0.00     278    56.6
 341   15:10   57.3    19    1.8   190      6.2   888.0    0.00     210    56.6
 341   15:20   56.2    20    1.7   171      6.9   888.1    0.00     201    56.4
 341   15:30   55.9    21    2.7   187      6.7   888.1    0.00     191    56.2
 341   15:40   55.6    21    1.5   167      4.4   888.1    0.00     161    55.8
 341   15:50   54.2    22    1.5   161      7.2   888.2    0.00     131    55.3
 341   16:00   52.7    23    1.1   163      3.9   888.3    0.00      65    54.8
 341   16:10   51.7    24    1.2   174      5.1   888.4    0.00      13    54.2
 341   16:20   50.8    25    1.1   165      6.8   888.5    0.00       9    53.6
 341   16:30   49.8    26    0.5   136      2.0   888.6    0.00       5    53.0
 341   16:40   48.5    28    0.6   125      1.7   888.8    0.00       0    52.4
 341   16:50   47.8    28    0.4   134      2.3   888.8    0.00       0    51.9
 341   17:00   47.2    28    0.6   130      4.9   888.9    0.00       0    51.4
 341   17:10   46.2    29    0.3   137      1.7   888.9    0.00       0    50.9
 341   17:20   45.8    29    0.6   189      3.1   889.0    0.00       0    50.4
 341   17:30   46.0    29    0.3   182      2.7   889.0    0.00       0    49.9
 341   17:40   44.8    30    0.5   198      2.0   889.1    0.00       0    49.5
 341   17:50   45.6    29    0.5   116      1.9   889.2    0.00       0    49.1
 341   18:00   46.4    28    0.9   120      2.6   889.4    0.00       0    48.7
 341   18:10   46.8    28    0.8   112      2.9   889.6    0.00       0    48.4
 341   18:20   47.2    27    1.9    92      8.0   889.7    0.00       0    48.1
 341   18:30   48.5    26    1.3   140      5.4   890.0    0.00       0    47.8
 341   18:40   47.9    26    1.2   204      6.2   890.1    0.00       0    47.6
 341   18:50   47.6    26    1.3   208      4.4   890.2    0.00       0    47.3
 341   19:00   45.4    29    1.6   232      4.6   890.3    0.00       0    47.1
 341   19:10   43.9    31    1.5   330      4.2   890.4    0.00       0    46.9
 341   19:20   42.9    32    3.9   337     13.1   890.7    0.00       0    46.6
 341   19:30   43.0    30    6.9   341     14.2   891.2    0.00       0    46.3
 341   19:40   44.2    26    7.7   344     16.2   891.5    0.00       0    46.1
 341   19:50   44.4    24    7.2   336     14.5   891.8    0.00       0    45.9
 341   20:00   43.4    26    7.6   331     14.2   892.2    0.00       0    45.7
 341   20:10   42.3    27    5.6   312     12.1   892.4    0.00       0    45.6
 341   20:20   41.2    28    5.0   300     10.5   892.8    0.00       0    45.4
 341   20:30   40.5    29    6.7   298     12.0   892.9    0.00       0    45.2
 341   20:40   40.2    29    7.0   294     15.1   893.1    0.00       0    45.0
 341   20:50   39.8    30    6.3   297     11.7   893.4    0.00       0    44.7
 341   21:00   39.5    29    7.0   297     16.2   893.5    0.00       0    44.5
 341   21:10   39.0    30    6.1   295     11.4   893.7    0.00       0    44.3
 341   21:20   38.6    30    6.5   289     11.5   893.9    0.00       0    44.1
 341   21:30   38.3    30    6.2   294     13.2   894.0    0.00       0    43.9
 341   21:40   38.2    30    6.0   292     13.0   894.2    0.00       0    43.7
 341   21:50   38.0    30    5.4   297     10.9   894.4    0.00       0    43.5
 341   22:00   37.9    30    5.9   297     12.8   894.7    0.00       0    43.3
 341   22:10   37.6    30    5.9   298     10.5   894.9    0.00       0    43.1
 341   22:20   37.5    30    6.2   301     13.4   895.1    0.00       0    42.9
 341   22:30   37.5    29    5.1   304     11.7   895.3    0.00       0    42.8
 341   22:40   37.3    29    6.3   306     11.2   895.5    0.00       0    42.6
 341   22:50   37.2    30    5.9   301     10.7   895.7    0.00       0    42.4
 341   23:00   37.2    30    5.4   312     13.7   895.8    0.00       0    42.2
 341   23:10   37.1    30    5.6   311     10.0   896.0    0.00       0    42.1
 341   23:20   36.7    31    5.5   307     10.4   896.0    0.00       0    41.9
 341   23:30   36.5    31    4.8   314      9.8   896.1    0.00       0    41.8
 341   23:40   36.2    32    4.8   320      9.3   896.2    0.00       0    41.7
 341   23:50   36.1    32    4.6   318      9.8   896.3    0.00       0    41.5
 342    0:00   35.9    32    4.3   320      8.5   896.3    0.00       0    41.4
 342    0:10   35.8    32    4.5   324      9.1   896.4    0.00       0    41.2
 342    0:20   35.7    32    4.6   331      9.7   896.5    0.00       0    41.1
 342    0:30   35.7    32    5.6   316      9.4   896.6    0.00       0    41.0
 342    0:40   35.7    32    5.7   309     11.0   896.7    0.00       0    40.9
 342    0:50   35.6    32    5.5   310     10.7   896.9    0.00       0    40.7
 342    1:00   35.5    32    4.8   319     10.5   897.0    0.00       0    40.6
 342    1:10   35.3    33    4.1   325      9.8   897.2    0.00       0    40.5
 342    1:20   35.2    33    5.2   337     10.3   897.4    0.00       0    40.4
 342    1:30   35.1    33    4.2   343      7.7   897.5    0.00       0    40.3
 342    1:40   34.3    35    3.7   351      8.8   897.7    0.00       0    40.2
 342    1:50   34.3    35    3.6   355      7.8   897.9    0.00       0    40.1
 342    2:00   32.9    39    3.6    18      6.6   898.1    0.00       0    39.9
 342    2:10   32.0    41    3.0    25      5.8   898.2    0.00       0    39.8
 342    2:20   31.1    42    3.3    29      6.1   898.4    0.00       0    39.7
 342    2:30   30.6    43    2.7    21      5.1   898.5    0.00       0    39.6
 342    2:40   30.0    44    2.6    16      4.7   898.6    0.00       0    39.4
 342    2:50   29.7    46    3.4    14      6.4   898.5    0.00       0    39.2

Return to Alamo, Nevada graphs page.


Western Regional Climate Center,wrcc@dri.edu